sensor_id;sensor_type;location;lat;lon;timestamp;P1;durP1;ratioP1;P2;durP2;ratioP2
42832;SDS011;64089;51.478;5.692;2022-11-15T00:00:28;19.90;;;10.52;;
42832;SDS011;64089;51.478;5.692;2022-11-15T00:02:53;24.30;;;11.07;;
42832;SDS011;64089;51.478;5.692;2022-11-15T00:05:19;17.15;;;10.30;;
42832;SDS011;64089;51.478;5.692;2022-11-15T00:07:45;18.40;;;10.07;;
42832;SDS011;64089;51.478;5.692;2022-11-15T00:10:11;21.33;;;10.32;;
42832;SDS011;64089;51.478;5.692;2022-11-15T00:12:37;31.13;;;10.27;;
42832;SDS011;64089;51.478;5.692;2022-11-15T00:15:02;20.85;;;10.40;;
42832;SDS011;64089;51.478;5.692;2022-11-15T00:17:28;25.27;;;11.25;;
42832;SDS011;64089;51.478;5.692;2022-11-15T00:19:54;20.38;;;9.82;;
42832;SDS011;64089;51.478;5.692;2022-11-15T00:22:20;21.67;;;10.75;;
42832;SDS011;64089;51.478;5.692;2022-11-15T00:24:46;21.65;;;11.05;;
42832;SDS011;64089;51.478;5.692;2022-11-15T00:27:12;20.05;;;10.48;;
42832;SDS011;64089;51.478;5.692;2022-11-15T00:29:37;19.55;;;10.15;;
42832;SDS011;64089;51.478;5.692;2022-11-15T00:32:08;27.58;;;11.38;;
42832;SDS011;64089;51.478;5.692;2022-11-15T00:34:36;19.58;;;10.25;;
42832;SDS011;64089;51.478;5.692;2022-11-15T00:37:02;26.55;;;12.43;;
42832;SDS011;64089;51.478;5.692;2022-11-15T00:39:28;20.67;;;10.52;;
42832;SDS011;64089;51.478;5.692;2022-11-15T00:41:53;22.25;;;9.77;;
42832;SDS011;64089;51.478;5.692;2022-11-15T00:44:19;19.48;;;9.32;;
42832;SDS011;64089;51.478;5.692;2022-11-15T00:46:44;22.05;;;10.07;;
42832;SDS011;64089;51.478;5.692;2022-11-15T00:49:10;19.98;;;10.48;;
42832;SDS011;64089;51.478;5.692;2022-11-15T00:51:35;23.73;;;11.32;;
42832;SDS011;64089;51.478;5.692;2022-11-15T00:54:01;23.80;;;11.93;;
42832;SDS011;64089;51.478;5.692;2022-11-15T00:56:27;18.58;;;11.00;;
42832;SDS011;64089;51.478;5.692;2022-11-15T00:58:52;24.58;;;11.15;;
42832;SDS011;64089;51.478;5.692;2022-11-15T01:01:18;21.20;;;10.35;;
42832;SDS011;64089;51.478;5.692;2022-11-15T01:03:44;32.30;;;12.00;;
42832;SDS011;64089;51.478;5.692;2022-11-15T01:06:09;23.35;;;10.10;;
42832;SDS011;64089;51.478;5.692;2022-11-15T01:08:36;20.77;;;10.25;;
42832;SDS011;64089;51.478;5.692;2022-11-15T01:11:04;29.50;;;11.75;;
42832;SDS011;64089;51.478;5.692;2022-11-15T01:13:33;19.90;;;10.70;;
42832;SDS011;64089;51.478;5.692;2022-11-15T01:16:07;22.42;;;11.30;;
42832;SDS011;64089;51.478;5.692;2022-11-15T01:18:34;21.55;;;10.55;;
42832;SDS011;64089;51.478;5.692;2022-11-15T01:21:01;26.48;;;12.13;;
42832;SDS011;64089;51.478;5.692;2022-11-15T01:23:30;21.85;;;10.55;;
42832;SDS011;64089;51.478;5.692;2022-11-15T01:25:59;19.60;;;9.90;;
42832;SDS011;64089;51.478;5.692;2022-11-15T01:28:29;19.02;;;9.70;;
42832;SDS011;64089;51.478;5.692;2022-11-15T01:30:59;25.80;;;10.90;;
42832;SDS011;64089;51.478;5.692;2022-11-15T01:33:26;20.95;;;9.77;;
42832;SDS011;64089;51.478;5.692;2022-11-15T01:35:53;20.63;;;9.95;;
42832;SDS011;64089;51.478;5.692;2022-11-15T01:38:19;18.42;;;10.32;;
42832;SDS011;64089;51.478;5.692;2022-11-15T01:40:45;21.13;;;10.50;;
42832;SDS011;64089;51.478;5.692;2022-11-15T01:43:24;30.00;;;11.88;;
42832;SDS011;64089;51.478;5.692;2022-11-15T01:46:02;23.52;;;10.07;;
42832;SDS011;64089;51.478;5.692;2022-11-15T01:48:32;18.35;;;10.50;;
42832;SDS011;64089;51.478;5.692;2022-11-15T01:50:59;21.00;;;10.23;;
42832;SDS011;64089;51.478;5.692;2022-11-15T01:53:27;23.85;;;11.18;;
42832;SDS011;64089;51.478;5.692;2022-11-15T01:55:54;22.55;;;10.52;;
42832;SDS011;64089;51.478;5.692;2022-11-15T01:58:21;20.98;;;11.23;;
42832;SDS011;64089;51.478;5.692;2022-11-15T02:00:47;20.20;;;10.80;;
42832;SDS011;64089;51.478;5.692;2022-11-15T02:03:14;18.30;;;10.70;;
42832;SDS011;64089;51.478;5.692;2022-11-15T02:05:40;25.60;;;10.93;;
42832;SDS011;64089;51.478;5.692;2022-11-15T02:08:08;18.80;;;10.98;;
42832;SDS011;64089;51.478;5.692;2022-11-15T02:10:44;22.10;;;10.73;;
42832;SDS011;64089;51.478;5.692;2022-11-15T02:13:14;24.83;;;11.45;;
42832;SDS011;64089;51.478;5.692;2022-11-15T02:15:59;17.60;;;9.30;;
42832;SDS011;64089;51.478;5.692;2022-11-15T02:18:30;19.90;;;10.70;;
42832;SDS011;64089;51.478;5.692;2022-11-15T02:26:33;20.60;;;9.90;;
42832;SDS011;64089;51.478;5.692;2022-11-15T02:31:57;18.42;;;10.07;;
42832;SDS011;64089;51.478;5.692;2022-11-15T02:37:38;21.73;;;10.70;;
42832;SDS011;64089;51.478;5.692;2022-11-15T02:40:15;24.33;;;10.55;;
42832;SDS011;64089;51.478;5.692;2022-11-15T02:42:53;20.23;;;10.53;;
42832;SDS011;64089;51.478;5.692;2022-11-15T02:45:51;18.70;;;9.90;;
42832;SDS011;64089;51.478;5.692;2022-11-15T02:48:23;19.10;;;10.18;;
42832;SDS011;64089;51.478;5.692;2022-11-15T02:50:50;25.80;;;10.60;;
42832;SDS011;64089;51.478;5.692;2022-11-15T02:53:16;25.30;;;10.93;;
42832;SDS011;64089;51.478;5.692;2022-11-15T02:55:43;23.83;;;9.93;;
42832;SDS011;64089;51.478;5.692;2022-11-15T03:06:14;18.50;;;9.48;;
42832;SDS011;64089;51.478;5.692;2022-11-15T03:12:45;21.77;;;9.50;;
42832;SDS011;64089;51.478;5.692;2022-11-15T03:15:01;23.38;;;9.90;;
42832;SDS011;64089;51.478;5.692;2022-11-15T03:17:37;20.00;;;9.88;;
42832;SDS011;64089;51.478;5.692;2022-11-15T03:20:15;21.98;;;10.52;;
42832;SDS011;64089;51.478;5.692;2022-11-15T03:22:44;20.85;;;10.55;;
42832;SDS011;64089;51.478;5.692;2022-11-15T03:25:13;16.02;;;9.50;;
42832;SDS011;64089;51.478;5.692;2022-11-15T03:27:44;17.17;;;9.82;;
42832;SDS011;64089;51.478;5.692;2022-11-15T03:30:13;21.15;;;9.65;;
42832;SDS011;64089;51.478;5.692;2022-11-15T03:32:44;19.40;;;10.23;;
42832;SDS011;64089;51.478;5.692;2022-11-15T03:35:21;21.75;;;9.20;;
42832;SDS011;64089;51.478;5.692;2022-11-15T03:37:55;24.75;;;10.68;;
42832;SDS011;64089;51.478;5.692;2022-11-15T03:40:45;23.67;;;10.27;;
42832;SDS011;64089;51.478;5.692;2022-11-15T03:46:13;24.17;;;10.65;;
42832;SDS011;64089;51.478;5.692;2022-11-15T03:48:49;22.48;;;10.07;;
42832;SDS011;64089;51.478;5.692;2022-11-15T03:51:17;24.35;;;10.57;;
42832;SDS011;64089;51.478;5.692;2022-11-15T03:53:44;18.38;;;9.50;;
42832;SDS011;64089;51.478;5.692;2022-11-15T03:56:10;20.50;;;9.65;;
42832;SDS011;64089;51.478;5.692;2022-11-15T03:58:36;20.58;;;11.55;;
42832;SDS011;64089;51.478;5.692;2022-11-15T04:01:01;19.80;;;10.05;;
42832;SDS011;64089;51.478;5.692;2022-11-15T04:03:27;21.35;;;10.90;;
42832;SDS011;64089;51.478;5.692;2022-11-15T04:05:53;19.70;;;10.18;;
42832;SDS011;64089;51.478;5.692;2022-11-15T04:08:18;25.00;;;11.35;;
42832;SDS011;64089;51.478;5.692;2022-11-15T04:10:44;22.95;;;10.60;;
42832;SDS011;64089;51.478;5.692;2022-11-15T04:13:09;19.73;;;10.43;;
42832;SDS011;64089;51.478;5.692;2022-11-15T04:15:35;14.77;;;9.40;;
42832;SDS011;64089;51.478;5.692;2022-11-15T04:18:01;25.05;;;10.65;;
42832;SDS011;64089;51.478;5.692;2022-11-15T04:20:28;19.70;;;9.65;;
42832;SDS011;64089;51.478;5.692;2022-11-15T04:23:15;18.65;;;9.93;;
42832;SDS011;64089;51.478;5.692;2022-11-15T04:26:04;18.50;;;10.05;;
42832;SDS011;64089;51.478;5.692;2022-11-15T04:28:32;19.25;;;9.45;;
42832;SDS011;64089;51.478;5.692;2022-11-15T04:30:58;23.95;;;10.13;;
42832;SDS011;64089;51.478;5.692;2022-11-15T04:33:24;19.92;;;9.05;;
42832;SDS011;64089;51.478;5.692;2022-11-15T04:35:49;22.58;;;11.23;;
42832;SDS011;64089;51.478;5.692;2022-11-15T04:38:34;18.50;;;10.10;;
42832;SDS011;64089;51.478;5.692;2022-11-15T04:41:02;17.60;;;9.38;;
42832;SDS011;64089;51.478;5.692;2022-11-15T04:43:28;18.95;;;9.85;;
42832;SDS011;64089;51.478;5.692;2022-11-15T04:45:54;19.20;;;9.55;;
42832;SDS011;64089;51.478;5.692;2022-11-15T04:48:20;18.35;;;9.98;;
42832;SDS011;64089;51.478;5.692;2022-11-15T04:50:47;25.13;;;10.15;;
42832;SDS011;64089;51.478;5.692;2022-11-15T04:53:13;19.80;;;9.60;;
42832;SDS011;64089;51.478;5.692;2022-11-15T04:55:39;17.40;;;9.80;;
42832;SDS011;64089;51.478;5.692;2022-11-15T04:58:04;24.58;;;10.57;;
42832;SDS011;64089;51.478;5.692;2022-11-15T05:00:30;19.00;;;10.05;;
42832;SDS011;64089;51.478;5.692;2022-11-15T05:02:56;19.80;;;10.20;;
42832;SDS011;64089;51.478;5.692;2022-11-15T05:05:40;23.15;;;10.70;;
42832;SDS011;64089;51.478;5.692;2022-11-15T05:08:06;19.05;;;9.80;;
42832;SDS011;64089;51.478;5.692;2022-11-15T05:10:32;19.75;;;9.73;;
42832;SDS011;64089;51.478;5.692;2022-11-15T05:12:58;19.30;;;9.38;;
42832;SDS011;64089;51.478;5.692;2022-11-15T05:15:23;24.35;;;9.68;;
42832;SDS011;64089;51.478;5.692;2022-11-15T05:17:49;17.48;;;9.93;;
42832;SDS011;64089;51.478;5.692;2022-11-15T05:20:15;15.63;;;9.32;;
42832;SDS011;64089;51.478;5.692;2022-11-15T05:22:40;18.85;;;9.63;;
42832;SDS011;64089;51.478;5.692;2022-11-15T05:25:09;17.33;;;9.18;;
42832;SDS011;64089;51.478;5.692;2022-11-15T05:27:35;16.88;;;9.32;;
42832;SDS011;64089;51.478;5.692;2022-11-15T05:30:00;25.58;;;9.80;;
42832;SDS011;64089;51.478;5.692;2022-11-15T05:32:26;24.88;;;11.18;;
42832;SDS011;64089;51.478;5.692;2022-11-15T05:34:52;19.33;;;10.18;;
42832;SDS011;64089;51.478;5.692;2022-11-15T05:37:19;19.83;;;9.98;;
42832;SDS011;64089;51.478;5.692;2022-11-15T05:39:44;20.67;;;9.65;;
42832;SDS011;64089;51.478;5.692;2022-11-15T05:42:11;18.45;;;8.73;;
42832;SDS011;64089;51.478;5.692;2022-11-15T05:44:39;18.90;;;9.27;;
42832;SDS011;64089;51.478;5.692;2022-11-15T05:47:12;16.73;;;9.10;;
42832;SDS011;64089;51.478;5.692;2022-11-15T05:49:42;24.38;;;9.32;;
42832;SDS011;64089;51.478;5.692;2022-11-15T05:52:09;24.30;;;9.15;;
42832;SDS011;64089;51.478;5.692;2022-11-15T05:54:41;14.40;;;7.72;;
42832;SDS011;64089;51.478;5.692;2022-11-15T05:57:07;17.92;;;8.88;;
42832;SDS011;64089;51.478;5.692;2022-11-15T05:59:32;17.10;;;8.73;;
42832;SDS011;64089;51.478;5.692;2022-11-15T06:02:00;19.58;;;9.02;;
42832;SDS011;64089;51.478;5.692;2022-11-15T06:04:25;23.85;;;8.98;;
42832;SDS011;64089;51.478;5.692;2022-11-15T06:06:51;15.02;;;8.77;;
42832;SDS011;64089;51.478;5.692;2022-11-15T06:09:17;19.25;;;8.70;;
42832;SDS011;64089;51.478;5.692;2022-11-15T06:11:42;18.00;;;9.13;;
42832;SDS011;64089;51.478;5.692;2022-11-15T06:14:08;20.85;;;8.48;;
42832;SDS011;64089;51.478;5.692;2022-11-15T06:16:33;17.73;;;8.77;;
42832;SDS011;64089;51.478;5.692;2022-11-15T06:18:59;18.67;;;9.38;;
42832;SDS011;64089;51.478;5.692;2022-11-15T06:21:25;13.27;;;8.77;;
42832;SDS011;64089;51.478;5.692;2022-11-15T06:23:52;18.00;;;8.98;;
42832;SDS011;64089;51.478;5.692;2022-11-15T06:26:18;25.52;;;8.68;;
42832;SDS011;64089;51.478;5.692;2022-11-15T06:28:44;18.20;;;8.02;;
42832;SDS011;64089;51.478;5.692;2022-11-15T06:31:10;15.52;;;7.60;;
42832;SDS011;64089;51.478;5.692;2022-11-15T06:33:37;16.60;;;8.43;;
42832;SDS011;64089;51.478;5.692;2022-11-15T06:36:04;16.40;;;7.43;;
42832;SDS011;64089;51.478;5.692;2022-11-15T06:38:31;17.55;;;8.20;;
42832;SDS011;64089;51.478;5.692;2022-11-15T06:41:03;16.23;;;8.10;;
42832;SDS011;64089;51.478;5.692;2022-11-15T06:43:31;12.63;;;7.63;;
42832;SDS011;64089;51.478;5.692;2022-11-15T06:45:58;16.08;;;7.53;;
42832;SDS011;64089;51.478;5.692;2022-11-15T06:48:24;16.70;;;7.47;;
42832;SDS011;64089;51.478;5.692;2022-11-15T06:50:53;13.05;;;7.57;;
42832;SDS011;64089;51.478;5.692;2022-11-15T06:53:20;15.45;;;7.47;;
42832;SDS011;64089;51.478;5.692;2022-11-15T06:55:46;12.93;;;7.95;;
42832;SDS011;64089;51.478;5.692;2022-11-15T06:58:12;14.60;;;7.28;;
42832;SDS011;64089;51.478;5.692;2022-11-15T07:00:38;12.18;;;6.53;;
42832;SDS011;64089;51.478;5.692;2022-11-15T07:03:04;22.75;;;7.53;;
42832;SDS011;64089;51.478;5.692;2022-11-15T07:05:29;12.23;;;6.30;;
42832;SDS011;64089;51.478;5.692;2022-11-15T07:07:56;17.27;;;7.03;;
42832;SDS011;64089;51.478;5.692;2022-11-15T07:10:22;14.05;;;7.28;;
42832;SDS011;64089;51.478;5.692;2022-11-15T07:12:49;12.88;;;6.90;;
42832;SDS011;64089;51.478;5.692;2022-11-15T07:15:19;16.60;;;7.60;;
42832;SDS011;64089;51.478;5.692;2022-11-15T07:17:47;21.17;;;6.25;;
42832;SDS011;64089;51.478;5.692;2022-11-15T07:22:39;17.05;;;6.95;;
42832;SDS011;64089;51.478;5.692;2022-11-15T07:25:05;14.00;;;6.97;;
42832;SDS011;64089;51.478;5.692;2022-11-15T07:27:31;15.32;;;6.63;;
42832;SDS011;64089;51.478;5.692;2022-11-15T07:29:57;17.40;;;7.05;;
42832;SDS011;64089;51.478;5.692;2022-11-15T07:32:22;10.85;;;6.25;;
42832;SDS011;64089;51.478;5.692;2022-11-15T07:34:48;16.40;;;5.90;;
42832;SDS011;64089;51.478;5.692;2022-11-15T07:37:14;9.60;;;6.10;;
42832;SDS011;64089;51.478;5.692;2022-11-15T07:39:39;18.85;;;6.10;;
42832;SDS011;64089;51.478;5.692;2022-11-15T07:42:05;12.30;;;6.05;;
42832;SDS011;64089;51.478;5.692;2022-11-15T07:44:49;10.80;;;5.63;;
42832;SDS011;64089;51.478;5.692;2022-11-15T07:47:14;13.60;;;5.97;;
42832;SDS011;64089;51.478;5.692;2022-11-15T07:49:40;9.70;;;5.55;;
42832;SDS011;64089;51.478;5.692;2022-11-15T07:52:06;14.65;;;5.70;;
42832;SDS011;64089;51.478;5.692;2022-11-15T07:54:31;11.32;;;5.53;;
42832;SDS011;64089;51.478;5.692;2022-11-15T07:56:57;20.23;;;6.25;;
42832;SDS011;64089;51.478;5.692;2022-11-15T07:59:22;20.83;;;6.47;;
42832;SDS011;64089;51.478;5.692;2022-11-15T08:01:48;18.73;;;6.32;;
42832;SDS011;64089;51.478;5.692;2022-11-15T08:04:13;23.85;;;6.93;;
42832;SDS011;64089;51.478;5.692;2022-11-15T08:06:39;15.20;;;6.32;;
42832;SDS011;64089;51.478;5.692;2022-11-15T08:09:04;11.65;;;6.18;;
42832;SDS011;64089;51.478;5.692;2022-11-15T08:11:30;12.27;;;7.00;;
42832;SDS011;64089;51.478;5.692;2022-11-15T08:13:56;19.52;;;6.80;;
42832;SDS011;64089;51.478;5.692;2022-11-15T08:16:21;11.52;;;6.10;;
42832;SDS011;64089;51.478;5.692;2022-11-15T08:18:47;14.10;;;6.22;;
42832;SDS011;64089;51.478;5.692;2022-11-15T08:21:17;8.63;;;5.50;;
42832;SDS011;64089;51.478;5.692;2022-11-15T08:23:45;13.27;;;5.57;;
42832;SDS011;64089;51.478;5.692;2022-11-15T08:26:11;14.27;;;5.75;;
42832;SDS011;64089;51.478;5.692;2022-11-15T08:28:37;15.55;;;5.32;;
42832;SDS011;64089;51.478;5.692;2022-11-15T08:31:02;14.77;;;5.93;;
42832;SDS011;64089;51.478;5.692;2022-11-15T08:33:28;13.43;;;6.10;;
42832;SDS011;64089;51.478;5.692;2022-11-15T08:35:58;20.70;;;6.70;;
42832;SDS011;64089;51.478;5.692;2022-11-15T08:38:25;12.45;;;5.95;;
42832;SDS011;64089;51.478;5.692;2022-11-15T08:40:52;11.82;;;4.80;;
42832;SDS011;64089;51.478;5.692;2022-11-15T08:43:23;16.73;;;5.70;;
42832;SDS011;64089;51.478;5.692;2022-11-15T08:45:49;24.63;;;6.35;;
42832;SDS011;64089;51.478;5.692;2022-11-15T08:48:14;10.80;;;4.85;;
42832;SDS011;64089;51.478;5.692;2022-11-15T08:50:40;9.55;;;4.88;;
42832;SDS011;64089;51.478;5.692;2022-11-15T08:53:06;13.70;;;5.25;;
42832;SDS011;64089;51.478;5.692;2022-11-15T08:55:35;14.68;;;4.43;;
42832;SDS011;64089;51.478;5.692;2022-11-15T08:58:02;7.60;;;4.35;;
42832;SDS011;64089;51.478;5.692;2022-11-15T09:00:28;10.18;;;4.45;;
42832;SDS011;64089;51.478;5.692;2022-11-15T09:02:53;10.80;;;4.57;;
42832;SDS011;64089;51.478;5.692;2022-11-15T09:05:19;9.50;;;5.03;;
42832;SDS011;64089;51.478;5.692;2022-11-15T09:07:44;10.93;;;4.88;;
42832;SDS011;64089;51.478;5.692;2022-11-15T09:10:10;13.57;;;4.75;;
42832;SDS011;64089;51.478;5.692;2022-11-15T09:12:35;8.15;;;4.43;;
42832;SDS011;64089;51.478;5.692;2022-11-15T09:15:01;8.77;;;4.68;;
42832;SDS011;64089;51.478;5.692;2022-11-15T09:17:27;8.93;;;4.03;;
42832;SDS011;64089;51.478;5.692;2022-11-15T09:19:53;8.05;;;4.07;;
42832;SDS011;64089;51.478;5.692;2022-11-15T09:22:19;7.60;;;3.67;;
42832;SDS011;64089;51.478;5.692;2022-11-15T09:24:44;11.85;;;6.18;;
42832;SDS011;64089;51.478;5.692;2022-11-15T09:27:10;8.52;;;4.68;;
42832;SDS011;64089;51.478;5.692;2022-11-15T09:29:35;9.35;;;4.25;;
42832;SDS011;64089;51.478;5.692;2022-11-15T09:32:01;6.47;;;4.05;;
42832;SDS011;64089;51.478;5.692;2022-11-15T09:34:27;18.48;;;8.88;;
42832;SDS011;64089;51.478;5.692;2022-11-15T09:36:52;31.60;;;13.88;;
42832;SDS011;64089;51.478;5.692;2022-11-15T09:39:18;9.38;;;5.25;;
42832;SDS011;64089;51.478;5.692;2022-11-15T09:41:49;6.90;;;4.38;;
42832;SDS011;64089;51.478;5.692;2022-11-15T09:50:49;6.55;;;3.20;;
42832;SDS011;64089;51.478;5.692;2022-11-15T09:54:01;9.75;;;3.28;;
42832;SDS011;64089;51.478;5.692;2022-11-15T09:56:27;14.07;;;4.28;;
42832;SDS011;64089;51.478;5.692;2022-11-15T10:01:49;20.15;;;8.43;;
42832;SDS011;64089;51.478;5.692;2022-11-15T10:04:37;11.45;;;3.08;;
42832;SDS011;64089;51.478;5.692;2022-11-15T10:08:10;11.35;;;2.20;;
42832;SDS011;64089;51.478;5.692;2022-11-15T10:10:11;7.22;;;2.05;;
42832;SDS011;64089;51.478;5.692;2022-11-15T10:15:53;3.58;;;2.03;;
42832;SDS011;64089;51.478;5.692;2022-11-15T10:21:37;1.88;;;1.50;;
42832;SDS011;64089;51.478;5.692;2022-11-15T10:24:15;3.10;;;1.70;;
42832;SDS011;64089;51.478;5.692;2022-11-15T10:26:48;4.18;;;1.58;;
42832;SDS011;64089;51.478;5.692;2022-11-15T10:29:20;6.20;;;1.38;;
42832;SDS011;64089;51.478;5.692;2022-11-15T10:31:47;1.55;;;1.45;;
42832;SDS011;64089;51.478;5.692;2022-11-15T10:34:15;3.90;;;1.40;;
42832;SDS011;64089;51.478;5.692;2022-11-15T10:36:45;4.30;;;1.75;;
42832;SDS011;64089;51.478;5.692;2022-11-15T10:39:20;1.23;;;1.08;;
42832;SDS011;64089;51.478;5.692;2022-11-15T10:41:45;4.35;;;1.20;;
42832;SDS011;64089;51.478;5.692;2022-11-15T10:46:38;10.32;;;1.70;;
42832;SDS011;64089;51.478;5.692;2022-11-15T10:54:36;5.50;;;1.50;;
42832;SDS011;64089;51.478;5.692;2022-11-15T10:57:06;2.50;;;1.40;;
42832;SDS011;64089;51.478;5.692;2022-11-15T10:59:39;2.72;;;1.33;;
42832;SDS011;64089;51.478;5.692;2022-11-15T11:05:26;3.90;;;1.55;;
42832;SDS011;64089;51.478;5.692;2022-11-15T11:08:04;1.20;;;1.10;;
42832;SDS011;64089;51.478;5.692;2022-11-15T11:10:40;2.88;;;1.20;;
42832;SDS011;64089;51.478;5.692;2022-11-15T11:13:22;4.27;;;1.20;;
42832;SDS011;64089;51.478;5.692;2022-11-15T11:16:41;3.38;;;1.42;;
42832;SDS011;64089;51.478;5.692;2022-11-15T11:38:37;2.45;;;0.95;;
42832;SDS011;64089;51.478;5.692;2022-11-15T11:40:44;4.90;;;1.17;;
42832;SDS011;64089;51.478;5.692;2022-11-15T11:46:46;3.03;;;1.40;;
42832;SDS011;64089;51.478;5.692;2022-11-15T11:49:21;2.83;;;1.20;;
42832;SDS011;64089;51.478;5.692;2022-11-15T11:52:03;2.90;;;0.90;;
42832;SDS011;64089;51.478;5.692;2022-11-15T11:54:45;2.92;;;1.15;;
42832;SDS011;64089;51.478;5.692;2022-11-15T11:59:58;3.70;;;1.67;;
42832;SDS011;64089;51.478;5.692;2022-11-15T12:02:30;1.90;;;1.10;;
42832;SDS011;64089;51.478;5.692;2022-11-15T12:05:04;4.82;;;1.25;;
42832;SDS011;64089;51.478;5.692;2022-11-15T12:07:37;3.10;;;1.85;;
42832;SDS011;64089;51.478;5.692;2022-11-15T12:15:51;2.80;;;1.00;;
42832;SDS011;64089;51.478;5.692;2022-11-15T12:18:23;7.03;;;1.67;;
42832;SDS011;64089;51.478;5.692;2022-11-15T12:20:53;2.15;;;1.38;;
42832;SDS011;64089;51.478;5.692;2022-11-15T12:23:24;4.25;;;1.02;;
42832;SDS011;64089;51.478;5.692;2022-11-15T12:28:27;2.45;;;1.13;;
42832;SDS011;64089;51.478;5.692;2022-11-15T12:31:05;7.50;;;1.70;;
42832;SDS011;64089;51.478;5.692;2022-11-15T12:33:46;4.25;;;1.02;;
42832;SDS011;64089;51.478;5.692;2022-11-15T12:41:17;4.13;;;1.55;;
42832;SDS011;64089;51.478;5.692;2022-11-15T12:43:44;4.68;;;1.20;;
42832;SDS011;64089;51.478;5.692;2022-11-15T12:46:58;1.40;;;0.82;;
42832;SDS011;64089;51.478;5.692;2022-11-15T13:04:46;4.25;;;0.98;;
42832;SDS011;64089;51.478;5.692;2022-11-15T13:08:34;1.73;;;0.90;;
42832;SDS011;64089;51.478;5.692;2022-11-15T13:15:58;3.78;;;0.93;;
42832;SDS011;64089;51.478;5.692;2022-11-15T13:18:38;1.75;;;1.52;;
42832;SDS011;64089;51.478;5.692;2022-11-15T13:21:16;0.80;;;0.60;;
42832;SDS011;64089;51.478;5.692;2022-11-15T13:24:03;3.03;;;0.80;;
42832;SDS011;64089;51.478;5.692;2022-11-15T13:26:29;3.28;;;0.95;;
42832;SDS011;64089;51.478;5.692;2022-11-15T13:28:56;2.58;;;1.05;;
42832;SDS011;64089;51.478;5.692;2022-11-15T13:34:15;5.22;;;1.45;;
42832;SDS011;64089;51.478;5.692;2022-11-15T13:36:57;2.53;;;1.00;;
42832;SDS011;64089;51.478;5.692;2022-11-15T13:39:27;4.30;;;1.42;;
42832;SDS011;64089;51.478;5.692;2022-11-15T13:41:55;1.85;;;1.10;;
42832;SDS011;64089;51.478;5.692;2022-11-15T13:44:22;2.28;;;0.93;;
42832;SDS011;64089;51.478;5.692;2022-11-15T13:47:05;8.40;;;1.30;;
42832;SDS011;64089;51.478;5.692;2022-11-15T13:49:37;6.13;;;1.48;;
42832;SDS011;64089;51.478;5.692;2022-11-15T13:52:04;2.38;;;0.90;;
42832;SDS011;64089;51.478;5.692;2022-11-15T13:54:46;7.32;;;1.17;;
42832;SDS011;64089;51.478;5.692;2022-11-15T13:57:23;1.33;;;1.15;;
42832;SDS011;64089;51.478;5.692;2022-11-15T13:59:55;1.08;;;0.80;;
42832;SDS011;64089;51.478;5.692;2022-11-15T14:02:27;2.53;;;1.13;;
42832;SDS011;64089;51.478;5.692;2022-11-15T14:05:05;1.45;;;0.90;;
42832;SDS011;64089;51.478;5.692;2022-11-15T14:07:40;9.77;;;2.13;;
42832;SDS011;64089;51.478;5.692;2022-11-15T14:10:28;2.10;;;0.98;;
42832;SDS011;64089;51.478;5.692;2022-11-15T14:12:56;9.98;;;0.82;;
42832;SDS011;64089;51.478;5.692;2022-11-15T14:15:28;0.60;;;0.60;;
42832;SDS011;64089;51.478;5.692;2022-11-15T14:17:58;4.40;;;1.00;;
42832;SDS011;64089;51.478;5.692;2022-11-15T14:20:34;0.98;;;0.70;;
42832;SDS011;64089;51.478;5.692;2022-11-15T14:23:03;4.18;;;1.00;;
42832;SDS011;64089;51.478;5.692;2022-11-15T14:25:31;2.33;;;0.93;;
42832;SDS011;64089;51.478;5.692;2022-11-15T14:31:06;5.38;;;1.85;;
42832;SDS011;64089;51.478;5.692;2022-11-15T14:33:37;4.15;;;1.20;;
42832;SDS011;64089;51.478;5.692;2022-11-15T14:36:05;6.50;;;1.80;;
42832;SDS011;64089;51.478;5.692;2022-11-15T14:38:36;1.67;;;1.23;;
42832;SDS011;64089;51.478;5.692;2022-11-15T14:41:01;3.17;;;1.30;;
42832;SDS011;64089;51.478;5.692;2022-11-15T14:43:27;2.95;;;0.95;;
42832;SDS011;64089;51.478;5.692;2022-11-15T14:45:53;4.65;;;1.80;;
42832;SDS011;64089;51.478;5.692;2022-11-15T14:48:18;6.28;;;1.48;;
42832;SDS011;64089;51.478;5.692;2022-11-15T14:50:44;11.98;;;2.90;;
42832;SDS011;64089;51.478;5.692;2022-11-15T14:53:11;6.97;;;2.42;;
42832;SDS011;64089;51.478;5.692;2022-11-15T14:55:39;3.45;;;1.25;;
42832;SDS011;64089;51.478;5.692;2022-11-15T14:58:05;9.27;;;1.75;;
42832;SDS011;64089;51.478;5.692;2022-11-15T15:00:36;4.05;;;1.55;;
42832;SDS011;64089;51.478;5.692;2022-11-15T15:03:03;1.25;;;0.77;;
42832;SDS011;64089;51.478;5.692;2022-11-15T15:05:40;3.80;;;1.45;;
42832;SDS011;64089;51.478;5.692;2022-11-15T15:08:07;2.97;;;0.90;;
42832;SDS011;64089;51.478;5.692;2022-11-15T15:10:35;3.42;;;1.10;;
42832;SDS011;64089;51.478;5.692;2022-11-15T15:13:05;8.57;;;1.70;;
42832;SDS011;64089;51.478;5.692;2022-11-15T15:15:36;3.95;;;1.00;;
42832;SDS011;64089;51.478;5.692;2022-11-15T15:18:03;3.58;;;1.10;;
42832;SDS011;64089;51.478;5.692;2022-11-15T15:20:30;9.80;;;1.75;;
42832;SDS011;64089;51.478;5.692;2022-11-15T15:22:56;8.45;;;1.88;;
42832;SDS011;64089;51.478;5.692;2022-11-15T15:25:32;5.50;;;1.38;;
42832;SDS011;64089;51.478;5.692;2022-11-15T15:27:59;5.68;;;1.33;;
42832;SDS011;64089;51.478;5.692;2022-11-15T15:30:26;14.07;;;1.58;;
42832;SDS011;64089;51.478;5.692;2022-11-15T15:32:53;7.32;;;1.73;;
42832;SDS011;64089;51.478;5.692;2022-11-15T15:35:19;11.90;;;1.55;;
42832;SDS011;64089;51.478;5.692;2022-11-15T15:37:45;7.97;;;1.80;;
42832;SDS011;64089;51.478;5.692;2022-11-15T15:40:16;6.88;;;1.80;;
42832;SDS011;64089;51.478;5.692;2022-11-15T15:42:44;3.00;;;1.30;;
42832;SDS011;64089;51.478;5.692;2022-11-15T15:45:10;21.75;;;1.73;;
42832;SDS011;64089;51.478;5.692;2022-11-15T15:47:36;6.63;;;1.25;;
42832;SDS011;64089;51.478;5.692;2022-11-15T15:50:02;3.15;;;1.25;;
42832;SDS011;64089;51.478;5.692;2022-11-15T15:52:28;15.48;;;2.45;;
42832;SDS011;64089;51.478;5.692;2022-11-15T15:54:54;2.40;;;1.30;;
42832;SDS011;64089;51.478;5.692;2022-11-15T15:57:19;7.97;;;1.60;;
42832;SDS011;64089;51.478;5.692;2022-11-15T15:59:45;7.03;;;1.75;;
42832;SDS011;64089;51.478;5.692;2022-11-15T16:02:14;3.80;;;1.90;;
42832;SDS011;64089;51.478;5.692;2022-11-15T16:04:39;5.93;;;1.63;;
42832;SDS011;64089;51.478;5.692;2022-11-15T16:07:05;5.15;;;2.17;;
42832;SDS011;64089;51.478;5.692;2022-11-15T16:09:30;6.47;;;1.48;;
42832;SDS011;64089;51.478;5.692;2022-11-15T16:12:15;7.15;;;2.70;;
42832;SDS011;64089;51.478;5.692;2022-11-15T16:14:41;10.20;;;2.88;;
42832;SDS011;64089;51.478;5.692;2022-11-15T16:17:17;19.17;;;5.88;;
42832;SDS011;64089;51.478;5.692;2022-11-15T16:19:45;71.28;;;35.92;;
42832;SDS011;64089;51.478;5.692;2022-11-15T16:22:11;47.30;;;25.92;;
42832;SDS011;64089;51.478;5.692;2022-11-15T16:24:36;20.35;;;6.93;;
42832;SDS011;64089;51.478;5.692;2022-11-15T16:27:02;7.40;;;2.72;;
42832;SDS011;64089;51.478;5.692;2022-11-15T16:29:27;3.15;;;2.33;;
42832;SDS011;64089;51.478;5.692;2022-11-15T16:31:53;9.30;;;2.30;;
42832;SDS011;64089;51.478;5.692;2022-11-15T16:34:19;6.45;;;2.70;;
42832;SDS011;64089;51.478;5.692;2022-11-15T16:36:45;15.27;;;2.53;;
42832;SDS011;64089;51.478;5.692;2022-11-15T16:39:11;4.90;;;2.60;;
42832;SDS011;64089;51.478;5.692;2022-11-15T16:41:42;11.60;;;1.87;;
42832;SDS011;64089;51.478;5.692;2022-11-15T16:44:11;6.22;;;1.77;;
42832;SDS011;64089;51.478;5.692;2022-11-15T16:46:40;5.10;;;2.05;;
42832;SDS011;64089;51.478;5.692;2022-11-15T16:49:13;8.20;;;2.65;;